Time;durP1;ratioP1;P1;durP2;ratioP2;P2;SDS_P1;SDS_P2;PMS_P1;PMS_P2;Temp;Humidity;BMP_temperature;BMP_pressure;BME280_temperature;BME280_humidity;BME280_pressure;Samples;Min_cycle;Max_cycle;Signal;HPM_P1;HPM_P2
2022/05/31 00:00:05;;;;;;;8.82;1.00;;;;;;;;;;4972408;28;20027;-75
2022/05/31 00:02:31;;;;;;;3.78;1.00;;;;;;;;;;4972995;28;20043;-75
2022/05/31 00:04:58;;;;;;;4.95;0.98;;;;;;;;;;4972395;28;20025;-75
2022/05/31 00:07:24;;;;;;;6.05;1.00;;;;;;;;;;4972341;28;20027;-75
2022/05/31 00:09:51;;;;;;;4.18;1.13;;;;;;;;;;4972800;28;20027;-75
2022/05/31 00:12:17;;;;;;;3.53;0.70;;;;;;;;;;4972467;28;20035;-75
2022/05/31 00:14:44;;;;;;;3.03;0.90;;;;;;;;;;4972614;28;20027;-75
2022/05/31 00:17:11;;;;;;;2.90;1.30;;;;;;;;;;4971960;28;20025;-75
2022/05/31 00:19:37;;;;;;;2.85;1.00;;;;;;;;;;4984043;28;20065;-75
2022/05/31 00:22:10;;;;;;;2.53;1.08;;;;;;;;;;4966398;28;20053;-75
2022/05/31 00:24:39;;;;;;;2.03;0.90;;;;;;;;;;4976170;28;20026;-75
2022/05/31 00:27:09;;;;;;;3.40;1.10;;;;;;;;;;4976347;28;20038;-75
2022/05/31 00:29:36;;;;;;;4.18;1.27;;;;;;;;;;4974488;28;20484;-75
2022/05/31 00:32:04;;;;;;;4.00;1.20;;;;;;;;;;4975762;28;20049;-75
2022/05/31 00:34:32;;;;;;;1.67;0.88;;;;;;;;;;4976051;28;20031;-75
2022/05/31 00:36:58;;;;;;;6.45;1.10;;;;;;;;;;4976290;28;20019;-75
2022/05/31 00:39:24;;;;;;;4.05;1.00;;;;;;;;;;4975924;28;20708;-75
2022/05/31 00:41:58;;;;;;;2.45;0.93;;;;;;;;;;4975333;28;20038;-75
2022/05/31 00:44:27;;;;;;;2.60;1.10;;;;;;;;;;4975595;28;20488;-75
2022/05/31 00:46:57;;;;;;;2.67;0.90;;;;;;;;;;4975757;28;20121;-75
2022/05/31 00:49:33;;;;;;;5.70;1.05;;;;;;;;;;4975815;28;20033;-75
2022/05/31 00:52:02;;;;;;;3.85;1.25;;;;;;;;;;4975735;28;20368;-75
2022/05/31 00:54:31;;;;;;;3.40;0.90;;;;;;;;;;4975919;28;20014;-76
2022/05/31 00:56:57;;;;;;;1.50;0.75;;;;;;;;;;4976017;28;20031;-75
2022/05/31 00:59:27;;;;;;;4.43;0.93;;;;;;;;;;4975153;28;20039;-75
2022/05/31 01:01:56;;;;;;;3.30;0.98;;;;;;;;;;4969735;28;20034;-75
2022/05/31 01:04:45;;;;;;;3.75;1.23;;;;;;;;;;4971184;28;20019;-75
2022/05/31 01:07:12;;;;;;;2.35;1.00;;;;;;;;;;4975740;28;20061;-75
2022/05/31 01:09:38;;;;;;;3.17;0.80;;;;;;;;;;4973971;28;20023;-75
2022/05/31 01:12:05;;;;;;;2.15;0.80;;;;;;;;;;4972924;28;20026;-75
2022/05/31 01:14:32;;;;;;;2.80;0.80;;;;;;;;;;4975440;28;20031;-75
2022/05/31 01:17:03;;;;;;;2.55;0.75;;;;;;;;;;4974985;28;20038;-75
2022/05/31 01:22:16;;;;;;;5.32;0.88;;;;;;;;;;4975150;28;20031;-75
2022/05/31 01:24:50;;;;;;;5.68;1.27;;;;;;;;;;4975535;28;20027;-75
2022/05/31 01:27:25;;;;;;;1.40;0.80;;;;;;;;;;4974700;28;20025;-75
2022/05/31 01:29:52;;;;;;;2.67;0.90;;;;;;;;;;4975004;28;20030;-75
2022/05/31 01:32:19;;;;;;;1.67;0.75;;;;;;;;;;4974665;28;20059;-75
2022/05/31 01:34:45;;;;;;;5.70;1.08;;;;;;;;;;4975026;28;20034;-75
2022/05/31 01:37:11;;;;;;;1.38;0.90;;;;;;;;;;4974946;28;20019;-75
2022/05/31 01:39:43;;;;;;;3.45;0.80;;;;;;;;;;4974845;28;20447;-75
2022/05/31 01:42:12;;;;;;;1.30;0.80;;;;;;;;;;4974691;28;20025;-75
2022/05/31 01:44:41;;;;;;;2.83;0.80;;;;;;;;;;4973824;28;20027;-75
2022/05/31 01:47:08;;;;;;;11.13;1.35;;;;;;;;;;4970388;28;20039;-75
2022/05/31 01:49:37;;;;;;;4.47;1.10;;;;;;;;;;4970525;28;20015;-75
2022/05/31 01:52:04;;;;;;;5.18;1.13;;;;;;;;;;4974651;28;20077;-75
2022/05/31 01:54:31;;;;;;;3.67;0.95;;;;;;;;;;4974558;28;20045;-74
2022/05/31 01:56:59;;;;;;;1.85;1.00;;;;;;;;;;4974510;28;20031;-75
2022/05/31 01:59:28;;;;;;;3.33;0.75;;;;;;;;;;4974560;28;20039;-75
2022/05/31 02:01:56;;;;;;;5.40;1.13;;;;;;;;;;4974523;28;20026;-75
2022/05/31 02:04:22;;;;;;;3.65;1.10;;;;;;;;;;4974492;28;20027;-75
2022/05/31 02:07:10;;;;;;;3.72;0.95;;;;;;;;;;4974412;28;20049;-75
2022/05/31 02:09:35;;;;;;;2.83;1.08;;;;;;;;;;4959107;28;20019;-75
2022/05/31 02:12:01;;;;;;;2.75;0.95;;;;;;;;;;4971443;28;20041;-75
2022/05/31 02:14:27;;;;;;;3.92;1.00;;;;;;;;;;4969505;28;20027;-75
2022/05/31 02:16:54;;;;;;;2.72;0.90;;;;;;;;;;4969846;28;20484;-75
2022/05/31 02:19:25;;;;;;;3.72;0.93;;;;;;;;;;4969661;28;20045;-75
2022/05/31 02:21:53;;;;;;;;;;;;;;;;;;4971174;28;20334;-75
2022/05/31 02:24:21;;;;;;;2.50;0.90;;;;;;;;;;4973729;28;19906;-75
2022/05/31 02:26:47;;;;;;;2.72;1.00;;;;;;;;;;4969682;28;20039;-76
2022/05/31 02:29:15;;;;;;;3.05;1.10;;;;;;;;;;4970030;28;20031;-75
2022/05/31 02:31:42;;;;;;;3.08;1.02;;;;;;;;;;4973993;28;20029;-75
2022/05/31 02:34:09;;;;;;;2.13;1.00;;;;;;;;;;4974095;28;20037;-75
2022/05/31 02:36:35;;;;;;;6.50;1.20;;;;;;;;;;4971508;28;20025;-75
2022/05/31 02:39:02;;;;;;;5.03;1.10;;;;;;;;;;4971404;28;20038;-76
2022/05/31 02:41:29;;;;;;;2.65;1.10;;;;;;;;;;4968612;28;20023;-75
2022/05/31 02:43:55;;;;;;;4.25;1.30;;;;;;;;;;4969380;28;20049;-76
2022/05/31 02:46:23;;;;;;;3.53;1.20;;;;;;;;;;4969517;28;20038;-75
2022/05/31 02:48:49;;;;;;;2.67;1.13;;;;;;;;;;4970656;28;20067;-75
2022/05/31 02:51:16;;;;;;;2.42;0.93;;;;;;;;;;4972802;28;20498;-76
2022/05/31 02:53:42;;;;;;;6.07;1.33;;;;;;;;;;4969838;28;20030;-75
2022/05/31 02:56:09;;;;;;;5.45;1.13;;;;;;;;;;4969106;28;20546;-76
2022/05/31 02:58:35;;;;;;;2.00;1.23;;;;;;;;;;4969256;28;20043;-75
2022/05/31 03:01:02;;;;;;;2.35;1.20;;;;;;;;;;4969046;28;20456;-76
2022/05/31 03:03:29;;;;;;;2.92;1.20;;;;;;;;;;4973217;28;20019;-75
2022/05/31 03:05:55;;;;;;;7.03;1.63;;;;;;;;;;4968884;28;20039;-76
2022/05/31 03:08:21;;;;;;;3.47;1.15;;;;;;;;;;4969018;28;20038;-76
2022/05/31 03:10:51;;;;;;;3.67;1.50;;;;;;;;;;4973199;28;20439;-75
2022/05/31 03:13:20;;;;;;;9.02;1.55;;;;;;;;;;4973111;28;20037;-75
2022/05/31 03:15:47;;;;;;;6.47;1.27;;;;;;;;;;4973242;28;20029;-75
2022/05/31 03:18:15;;;;;;;3.42;1.23;;;;;;;;;;4972983;28;20039;-75
2022/05/31 03:20:51;;;;;;;4.13;1.50;;;;;;;;;;4973562;28;20034;-76
2022/05/31 03:23:21;;;;;;;6.15;1.50;;;;;;;;;;4972683;28;20537;-75
2022/05/31 03:25:48;;;;;;;3.30;1.50;;;;;;;;;;4972818;28;20026;-75
2022/05/31 03:28:15;;;;;;;4.82;1.48;;;;;;;;;;4972907;28;20141;-75
2022/05/31 03:30:41;;;;;;;5.45;1.45;;;;;;;;;;4972779;28;20499;-76
2022/05/31 03:33:09;;;;;;;3.35;1.50;;;;;;;;;;4973029;28;20030;-75
2022/05/31 03:35:36;;;;;;;3.88;1.40;;;;;;;;;;4973447;28;20477;-75
2022/05/31 03:38:02;;;;;;;4.20;1.52;;;;;;;;;;4972578;28;20037;-75
2022/05/31 03:43:14;;;;;;;2.75;1.30;;;;;;;;;;4972561;28;20057;-75
2022/05/31 03:45:41;;;;;;;4.25;1.60;;;;;;;;;;4972685;28;20037;-76
2022/05/31 03:48:09;;;;;;;5.63;1.70;;;;;;;;;;4972650;28;20050;-75
2022/05/31 03:50:35;;;;;;;3.55;1.70;;;;;;;;;;4972839;28;20031;-75
2022/05/31 03:53:01;;;;;;;3.70;1.65;;;;;;;;;;4971763;28;20480;-75
2022/05/31 03:55:28;;;;;;;4.47;1.75;;;;;;;;;;4972079;28;20031;-76
2022/05/31 03:57:54;;;;;;;4.85;1.73;;;;;;;;;;4972661;28;20029;-76
2022/05/31 04:00:21;;;;;;;3.13;1.60;;;;;;;;;;4972657;28;20106;-76
2022/05/31 04:02:47;;;;;;;5.10;1.85;;;;;;;;;;4973187;28;20026;-75
2022/05/31 04:05:14;;;;;;;3.45;1.58;;;;;;;;;;4972372;28;20037;-76
2022/05/31 04:07:40;;;;;;;1.95;1.45;;;;;;;;;;4972081;28;20408;-75
2022/05/31 04:10:07;;;;;;;1.95;1.40;;;;;;;;;;4972350;28;20026;-77
2022/05/31 04:12:34;;;;;;;4.38;1.50;;;;;;;;;;4972639;28;20061;-76
2022/05/31 04:15:01;;;;;;;4.03;1.40;;;;;;;;;;4972667;28;20042;-75
2022/05/31 04:17:27;;;;;;;3.65;1.50;;;;;;;;;;4967299;28;20034;-76
2022/05/31 04:19:54;;;;;;;6.07;1.60;;;;;;;;;;4967865;28;20037;-76
2022/05/31 04:22:20;;;;;;;3.72;1.67;;;;;;;;;;4967488;28;20503;-75
2022/05/31 04:24:46;;;;;;;2.40;1.52;;;;;;;;;;4969946;28;20035;-75
2022/05/31 04:27:16;;;;;;;5.85;1.40;;;;;;;;;;4972355;28;20029;-75
2022/05/31 04:29:43;;;;;;;3.20;1.60;;;;;;;;;;4972868;28;20033;-75
2022/05/31 04:32:09;;;;;;;3.25;1.52;;;;;;;;;;4972065;28;20035;-75
2022/05/31 04:34:36;;;;;;;4.63;1.23;;;;;;;;;;4972327;28;20022;-76
2022/05/31 04:37:02;;;;;;;2.60;1.15;;;;;;;;;;4971749;28;20023;-75
2022/05/31 04:39:28;;;;;;;1.70;1.10;;;;;;;;;;4969869;28;20142;-76
2022/05/31 04:41:55;;;;;;;7.88;1.08;;;;;;;;;;4967515;28;20039;-76
2022/05/31 04:44:21;;;;;;;2.42;1.30;;;;;;;;;;4972388;28;20403;-75
2022/05/31 04:46:48;;;;;;;4.95;1.27;;;;;;;;;;4971770;28;20051;-77
2022/05/31 04:49:15;;;;;;;5.07;1.38;;;;;;;;;;4972050;28;20033;-75
2022/05/31 04:51:43;;;;;;;2.60;1.42;;;;;;;;;;4971802;28;20022;-75
2022/05/31 04:54:09;;;;;;;6.75;1.70;;;;;;;;;;4972168;28;20029;-75
2022/05/31 04:56:36;;;;;;;6.63;1.55;;;;;;;;;;4970414;28;20026;-75
2022/05/31 04:59:03;;;;;;;3.15;1.38;;;;;;;;;;4972044;28;20390;-76
2022/05/31 05:01:29;;;;;;;2.28;1.67;;;;;;;;;;4971792;28;20392;-75
2022/05/31 05:03:56;;;;;;;5.50;1.90;;;;;;;;;;4971990;28;20023;-76
2022/05/31 05:06:22;;;;;;;4.10;1.92;;;;;;;;;;4974701;28;20019;-76
2022/05/31 05:08:49;;;;;;;4.60;1.50;;;;;;;;;;4976349;28;20037;-75
2022/05/31 05:11:17;;;;;;;4.00;1.45;;;;;;;;;;4975410;28;20019;-75
2022/05/31 05:13:43;;;;;;;3.28;1.50;;;;;;;;;;4975411;28;20049;-76
2022/05/31 05:16:11;;;;;;;6.38;1.70;;;;;;;;;;4975330;28;20021;-75
2022/05/31 05:18:37;;;;;;;4.55;1.50;;;;;;;;;;4975352;28;20042;-75
2022/05/31 05:21:05;;;;;;;4.40;1.52;;;;;;;;;;4974929;28;20534;-75
2022/05/31 05:23:31;;;;;;;6.45;1.80;;;;;;;;;;4975774;28;20476;-75
2022/05/31 05:25:58;;;;;;;3.20;1.40;;;;;;;;;;4975064;28;20077;-76
2022/05/31 05:31:40;;;;;;;3.75;1.52;;;;;;;;;;4974981;28;20023;-75
2022/05/31 05:34:06;;;;;;;3.70;1.50;;;;;;;;;;4974370;28;20518;-75
2022/05/31 05:36:33;;;;;;;3.78;1.58;;;;;;;;;;4975034;28;20095;-75
2022/05/31 05:38:59;;;;;;;2.53;1.50;;;;;;;;;;4975180;28;20039;-75
2022/05/31 05:41:27;;;;;;;4.18;1.80;;;;;;;;;;4975098;28;20031;-75
2022/05/31 05:43:53;;;;;;;4.28;1.55;;;;;;;;;;4974999;28;20031;-75
2022/05/31 05:46:21;;;;;;;5.65;1.55;;;;;;;;;;4974871;28;20019;-75
2022/05/31 05:48:48;;;;;;;2.13;1.45;;;;;;;;;;4974708;28;20046;-76
2022/05/31 05:51:16;;;;;;;8.07;1.98;;;;;;;;;;4974711;28;20031;-76
2022/05/31 05:53:42;;;;;;;6.70;1.77;;;;;;;;;;4974788;28;20038;-75
2022/05/31 05:56:09;;;;;;;5.30;1.67;;;;;;;;;;4974442;28;20089;-74
2022/05/31 05:58:35;;;;;;;4.82;1.63;;;;;;;;;;4974397;28;20035;-75
2022/05/31 06:01:02;;;;;;;3.30;1.50;;;;;;;;;;4974584;28;20017;-75
2022/05/31 06:03:32;;;;;;;9.00;1.80;;;;;;;;;;4974130;28;20399;-75
2022/05/31 06:05:59;;;;;;;8.00;1.52;;;;;;;;;;4974516;28;20081;-75
2022/05/31 06:08:30;;;;;;;4.10;1.55;;;;;;;;;;4977980;28;20038;-75
2022/05/31 06:11:12;;;;;;;9.73;1.88;;;;;;;;;;4972274;28;20026;-74
2022/05/31 06:13:59;;;;;;;6.53;1.58;;;;;;;;;;4976374;28;20023;-74
2022/05/31 06:16:26;;;;;;;4.15;1.58;;;;;;;;;;4973185;28;20401;-75
2022/05/31 06:18:54;;;;;;;5.85;1.70;;;;;;;;;;4973113;28;20061;-75
2022/05/31 06:21:22;;;;;;;8.45;2.13;;;;;;;;;;4973371;28;20029;-74
2022/05/31 06:23:49;;;;;;;4.40;1.75;;;;;;;;;;4974309;28;20019;-75
2022/05/31 06:26:18;;;;;;;4.35;2.15;;;;;;;;;;4973409;28;20365;-75
2022/05/31 06:28:46;;;;;;;6.75;1.83;;;;;;;;;;4973123;28;20069;-74
2022/05/31 06:31:12;;;;;;;7.45;1.90;;;;;;;;;;4973000;28;20476;-74
2022/05/31 06:33:38;;;;;;;13.68;1.65;;;;;;;;;;4970711;28;20590;-75
2022/05/31 06:36:07;;;;;;;9.02;1.83;;;;;;;;;;4973618;28;20029;-74
2022/05/31 06:38:34;;;;;;;12.00;1.73;;;;;;;;;;4973620;28;20030;-75
2022/05/31 06:41:01;;;;;;;8.70;1.80;;;;;;;;;;4972832;28;20042;-75
2022/05/31 06:43:27;;;;;;;10.48;1.80;;;;;;;;;;4967784;28;20481;-75
2022/05/31 06:45:54;;;;;;;3.38;1.80;;;;;;;;;;4969219;28;20023;-75
2022/05/31 06:48:20;;;;;;;4.53;1.50;;;;;;;;;;4972513;28;20061;-75
2022/05/31 06:50:47;;;;;;;5.60;1.60;;;;;;;;;;4984598;28;20045;-74
2022/05/31 06:58:43;;;;;;;10.60;1.73;;;;;;;;;;4973120;28;20385;-75
2022/05/31 07:01:09;;;;;;;4.50;1.70;;;;;;;;;;4972856;28;20027;-75
2022/05/31 07:03:36;;;;;;;6.85;1.60;;;;;;;;;;4971392;28;20053;-75
2022/05/31 07:06:02;;;;;;;7.38;1.75;;;;;;;;;;4970145;28;20364;-75
2022/05/31 07:08:29;;;;;;;8.77;1.75;;;;;;;;;;4969081;28;20027;-75
2022/05/31 07:10:55;;;;;;;5.93;1.80;;;;;;;;;;4971726;28;20027;-75
2022/05/31 07:13:22;;;;;;;7.13;1.95;;;;;;;;;;4971692;28;20034;-75
2022/05/31 07:15:51;;;;;;;8.45;1.85;;;;;;;;;;4972374;28;20034;-75
2022/05/31 07:18:18;;;;;;;6.22;1.38;;;;;;;;;;4971663;28;20027;-75
2022/05/31 07:20:44;;;;;;;3.05;1.50;;;;;;;;;;4972920;28;20034;-75
2022/05/31 07:23:11;;;;;;;5.25;1.70;;;;;;;;;;4975440;28;20030;-75
2022/05/31 07:25:37;;;;;;;3.67;1.50;;;;;;;;;;4971811;28;20037;-75
2022/05/31 07:28:03;;;;;;;5.95;1.50;;;;;;;;;;4978007;28;20027;-75
2022/05/31 07:30:30;;;;;;;2.97;1.67;;;;;;;;;;4977429;28;20389;-76
2022/05/31 07:32:56;;;;;;;5.82;1.40;;;;;;;;;;4968475;28;20447;-75
2022/05/31 07:35:23;;;;;;;7.32;1.52;;;;;;;;;;4972413;28;20498;-75
2022/05/31 07:37:49;;;;;;;4.07;1.95;;;;;;;;;;4972166;28;20037;-76
2022/05/31 07:40:15;;;;;;;3.35;1.50;;;;;;;;;;4972875;28;20021;-75
2022/05/31 07:42:42;;;;;;;3.65;1.50;;;;;;;;;;4971061;28;20188;-74
2022/05/31 07:45:08;;;;;;;9.75;1.88;;;;;;;;;;4971687;28;20027;-75
2022/05/31 07:47:35;;;;;;;7.55;1.65;;;;;;;;;;4971057;28;20050;-75
2022/05/31 07:50:01;;;;;;;3.80;1.48;;;;;;;;;;4972612;28;20045;-75
2022/05/31 07:52:27;;;;;;;6.15;1.45;;;;;;;;;;4972222;28;20526;-75
2022/05/31 07:54:54;;;;;;;3.05;1.48;;;;;;;;;;4968356;28;20023;-74
2022/05/31 08:00:05;;;;;;;10.00;1.80;;;;;;;;;;4971260;28;20492;-75
2022/05/31 08:02:31;;;;;;;10.68;1.92;;;;;;;;;;4975159;28;20035;-75
2022/05/31 08:04:58;;;;;;;12.60;1.83;;;;;;;;;;4974805;28;20027;-75
2022/05/31 08:07:24;;;;;;;4.63;1.70;;;;;;;;;;4967908;28;20034;-75
2022/05/31 08:09:51;;;;;;;3.35;1.67;;;;;;;;;;4971803;28;20085;-75
2022/05/31 08:12:17;;;;;;;7.53;1.60;;;;;;;;;;4972114;28;20037;-75
2022/05/31 08:14:43;;;;;;;4.50;1.45;;;;;;;;;;4971592;28;20061;-75
2022/05/31 08:17:10;;;;;;;5.30;1.73;;;;;;;;;;4973672;28;20072;-75
2022/05/31 08:19:38;;;;;;;6.63;1.83;;;;;;;;;;4973350;28;20049;-75
2022/05/31 08:22:04;;;;;;;11.32;1.92;;;;;;;;;;4971944;28;20022;-75
2022/05/31 08:24:31;;;;;;;6.35;2.03;;;;;;;;;;4970790;28;20031;-75
2022/05/31 08:26:59;;;;;;;4.35;1.60;;;;;;;;;;4967709;28;20384;-74
2022/05/31 08:29:26;;;;;;;9.95;1.70;;;;;;;;;;4969700;28;20035;-75
2022/05/31 08:31:52;;;;;;;16.65;2.30;;;;;;;;;;4969041;28;20065;-75
2022/05/31 08:34:18;;;;;;;6.78;1.70;;;;;;;;;;4967706;28;20049;-75
2022/05/31 08:36:45;;;;;;;5.97;1.63;;;;;;;;;;4969608;28;20026;-74
2022/05/31 08:39:11;;;;;;;6.25;1.77;;;;;;;;;;4970351;28;20049;-75
2022/05/31 08:41:44;;;;;;;8.18;1.52;;;;;;;;;;4992015;28;20039;-74
2022/05/31 08:44:30;;;;;;;3.13;1.60;;;;;;;;;;4972965;28;20026;-75
2022/05/31 08:47:15;;;;;;;4.15;1.70;;;;;;;;;;4975496;28;20049;-75
2022/05/31 08:52:33;;;;;;;3.78;1.70;;;;;;;;;;4962747;28;20035;-75
2022/05/31 08:57:47;;;;;;;3.65;1.80;;;;;;;;;;4972563;28;20045;-75
2022/05/31 09:00:21;;;;;;;3.97;1.77;;;;;;;;;;4973031;28;20027;-73
2022/05/31 09:02:47;;;;;;;7.45;1.67;;;;;;;;;;4975424;28;20031;-73
2022/05/31 09:05:34;;;;;;;4.97;1.67;;;;;;;;;;4974182;28;20027;-73
2022/05/31 09:08:05;;;;;;;5.70;1.60;;;;;;;;;;4975093;28;20031;-72
2022/05/31 09:10:36;;;;;;;5.05;1.40;;;;;;;;;;4974466;28;20385;-72
2022/05/31 09:13:06;;;;;;;5.63;1.90;;;;;;;;;;4970978;28;20026;-73
2022/05/31 09:15:40;;;;;;;4.80;1.67;;;;;;;;;;4973936;28;20038;-73
2022/05/31 09:18:16;;;;;;;7.43;1.80;;;;;;;;;;4971549;28;20039;-73
2022/05/31 09:20:53;;;;;;;4.32;1.80;;;;;;;;;;4973359;28;20043;-74
2022/05/31 09:23:46;;;;;;;7.20;1.70;;;;;;;;;;4968342;28;20030;-73
2022/05/31 09:26:23;;;;;;;2.63;1.35;;;;;;;;;;4970151;28;20045;-73
2022/05/31 09:28:55;;;;;;;5.88;1.48;;;;;;;;;;4973424;28;20030;-73
2022/05/31 09:31:27;;;;;;;4.38;1.70;;;;;;;;;;4968069;28;20049;-72
2022/05/31 09:34:20;;;;;;;3.17;1.45;;;;;;;;;;4970355;28;20039;-73
2022/05/31 09:36:54;;;;;;;3.83;1.52;;;;;;;;;;4937181;29;20514;-73
2022/05/31 09:39:23;;;;;;;2.05;1.25;;;;;;;;;;4949216;29;20036;-74
2022/05/31 09:42:04;;;;;;;2.95;1.27;;;;;;;;;;4937062;29;20138;-73
2022/05/31 09:44:43;;;;;;;3.58;1.30;;;;;;;;;;4939934;29;20049;-73
2022/05/31 09:47:15;;;;;;;5.18;1.40;;;;;;;;;;4947893;29;20031;-72
2022/05/31 09:49:43;;;;;;;8.95;1.70;;;;;;;;;;4947947;29;20050;-73
2022/05/31 09:52:12;;;;;;;2.15;1.48;;;;;;;;;;4946348;28;20048;-73
2022/05/31 09:57:43;;;;;;;5.47;1.50;;;;;;;;;;4940495;28;20039;-73
2022/05/31 10:00:15;;;;;;;6.68;1.25;;;;;;;;;;4938041;29;20051;-73
2022/05/31 10:02:42;;;;;;;4.00;1.50;;;;;;;;;;4925481;29;20159;-73
2022/05/31 10:05:14;;;;;;;4.32;1.40;;;;;;;;;;4946468;29;20035;-73
2022/05/31 10:07:40;;;;;;;3.08;1.10;;;;;;;;;;4948421;29;20039;-74
2022/05/31 10:10:12;;;;;;;2.70;1.50;;;;;;;;;;4947913;29;20046;-73
2022/05/31 10:12:48;;;;;;;5.22;1.30;;;;;;;;;;4954302;28;20542;-74
2022/05/31 10:15:30;;;;;;;7.38;1.45;;;;;;;;;;4974238;28;20019;-73
2022/05/31 10:18:04;;;;;;;3.72;1.50;;;;;;;;;;4970812;28;20046;-73
2022/05/31 10:20:32;;;;;;;3.08;1.27;;;;;;;;;;4969339;28;20471;-73
2022/05/31 10:23:00;;;;;;;5.55;1.25;;;;;;;;;;4969681;28;20018;-73
2022/05/31 10:25:29;;;;;;;3.80;1.40;;;;;;;;;;4969354;28;20027;-73
2022/05/31 10:27:59;;;;;;;4.03;1.40;;;;;;;;;;4970092;28;20019;-73
2022/05/31 10:30:26;;;;;;;3.17;1.05;;;;;;;;;;4958688;28;20026;-73
2022/05/31 10:32:54;;;;;;;2.20;1.45;;;;;;;;;;4970069;28;20045;-73
2022/05/31 10:35:26;;;;;;;7.80;1.75;;;;;;;;;;4969203;28;20023;-73
2022/05/31 10:37:57;;;;;;;2.70;1.50;;;;;;;;;;4972235;28;20037;-74
2022/05/31 10:40:32;;;;;;;2.92;1.50;;;;;;;;;;4969809;28;20037;-73
2022/05/31 10:43:04;;;;;;;4.43;1.40;;;;;;;;;;4969423;28;20042;-73
2022/05/31 10:45:34;;;;;;;4.40;1.58;;;;;;;;;;4958295;28;20057;-73
2022/05/31 10:48:00;;;;;;;2.08;1.60;;;;;;;;;;4970354;28;20050;-72
2022/05/31 10:50:33;;;;;;;6.43;1.33;;;;;;;;;;4969364;28;20201;-74
2022/05/31 10:53:12;;;;;;;3.28;1.60;;;;;;;;;;4968572;28;20438;-73
2022/05/31 10:55:43;;;;;;;4.10;1.67;;;;;;;;;;4968937;28;20022;-74
2022/05/31 10:58:12;;;;;;;2.78;1.38;;;;;;;;;;4972833;28;20053;-73
2022/05/31 11:00:50;;;;;;;4.82;1.55;;;;;;;;;;4973113;28;20035;-74
2022/05/31 11:03:35;;;;;;;3.03;1.35;;;;;;;;;;4972938;28;20110;-74
2022/05/31 11:06:02;;;;;;;5.20;1.17;;;;;;;;;;4970397;28;20023;-74
2022/05/31 11:11:43;;;;;;;1.55;1.23;;;;;;;;;;4969189;28;20031;-73
2022/05/31 11:14:22;;;;;;;5.47;1.70;;;;;;;;;;4968637;28;20026;-73
2022/05/31 11:16:51;;;;;;;2.53;1.40;;;;;;;;;;4968484;28;20030;-73
2022/05/31 11:19:21;;;;;;;3.50;1.55;;;;;;;;;;4968626;28;20055;-73
2022/05/31 11:21:54;;;;;;;1.90;1.40;;;;;;;;;;4969843;28;20015;-73
2022/05/31 11:24:23;;;;;;;2.60;1.30;;;;;;;;;;4972777;28;20019;-74
2022/05/31 11:26:50;;;;;;;4.53;1.38;;;;;;;;;;4968825;28;20023;-73
2022/05/31 11:29:35;;;;;;;5.20;1.50;;;;;;;;;;4968331;28;20041;-74
2022/05/31 11:32:24;;;;;;;5.30;1.35;;;;;;;;;;4971810;28;20034;-73
2022/05/31 11:35:10;;;;;;;9.13;1.50;;;;;;;;;;4967241;28;20027;-74
2022/05/31 11:37:40;;;;;;;1.67;1.33;;;;;;;;;;4969876;28;20038;-74
2022/05/31 11:40:25;;;;;;;2.05;1.35;;;;;;;;;;4971835;28;20034;-73
2022/05/31 11:43:04;;;;;;;3.30;1.73;;;;;;;;;;4969752;28;20085;-74
2022/05/31 11:45:47;;;;;;;3.00;1.48;;;;;;;;;;4969438;28;20458;-74
2022/05/31 11:48:16;;;;;;;4.20;1.30;;;;;;;;;;4971276;28;20058;-73
2022/05/31 11:51:01;;;;;;;2.63;1.50;;;;;;;;;;4967374;28;20023;-73
2022/05/31 11:53:27;;;;;;;7.20;1.52;;;;;;;;;;4997103;28;20026;-73
2022/05/31 11:56:05;;;;;;;2.15;1.67;;;;;;;;;;4970490;28;20027;-73
2022/05/31 11:58:33;;;;;;;8.25;1.48;;;;;;;;;;4967010;28;20057;-73
2022/05/31 12:01:03;;;;;;;2.42;1.42;;;;;;;;;;4967183;28;20027;-74
2022/05/31 12:03:39;;;;;;;4.18;1.58;;;;;;;;;;4968806;28;20487;-73
2022/05/31 12:06:10;;;;;;;3.72;1.73;;;;;;;;;;4967323;28;20522;-73
2022/05/31 12:08:41;;;;;;;4.45;1.80;;;;;;;;;;4972052;28;20504;-73
2022/05/31 12:11:15;;;;;;;2.70;1.58;;;;;;;;;;4971015;28;20042;-73
2022/05/31 12:13:44;;;;;;;4.00;1.55;;;;;;;;;;4971825;28;20034;-73
2022/05/31 12:16:11;;;;;;;4.35;1.88;;;;;;;;;;4970064;28;20035;-74
2022/05/31 12:18:38;;;;;;;2.38;1.50;;;;;;;;;;4970938;28;20049;-73
2022/05/31 12:21:04;;;;;;;6.07;2.00;;;;;;;;;;4970895;28;20510;-74
2022/05/31 12:23:48;;;;;;;2.70;1.45;;;;;;;;;;4971033;28;20026;-72
2022/05/31 12:26:21;;;;;;;2.17;1.63;;;;;;;;;;4970877;28;20029;-74
2022/05/31 12:29:06;;;;;;;5.05;1.60;;;;;;;;;;4966979;28;20404;-73
2022/05/31 12:31:34;;;;;;;3.42;1.70;;;;;;;;;;4966349;28;20023;-73
2022/05/31 12:34:19;;;;;;;4.05;1.65;;;;;;;;;;4966086;28;20033;-73
2022/05/31 12:36:59;;;;;;;2.78;1.48;;;;;;;;;;4968784;28;20023;-73
2022/05/31 12:39:33;;;;;;;3.90;1.58;;;;;;;;;;4967809;28;20130;-73
2022/05/31 12:42:15;;;;;;;3.85;1.65;;;;;;;;;;4971144;28;20041;-73
2022/05/31 12:44:42;;;;;;;4.45;1.40;;;;;;;;;;4970780;28;20675;-73
2022/05/31 12:47:24;;;;;;;3.95;1.40;;;;;;;;;;4966922;28;20065;-73
2022/05/31 12:50:04;;;;;;;4.50;1.90;;;;;;;;;;4966232;28;20041;-73
2022/05/31 12:52:42;;;;;;;6.43;2.00;;;;;;;;;;4966689;28;20022;-73
2022/05/31 12:55:11;;;;;;;5.75;2.05;;;;;;;;;;4970866;28;20019;-73
2022/05/31 13:00:26;;;;;;;2.45;1.70;;;;;;;;;;4970787;28;20569;-74
2022/05/31 13:02:54;;;;;;;4.72;1.58;;;;;;;;;;4971077;28;20089;-74
2022/05/31 13:05:31;;;;;;;3.45;1.50;;;;;;;;;;4970670;28;20039;-73
2022/05/31 13:08:29;;;;;;;3.28;1.55;;;;;;;;;;4970661;28;20467;-73
2022/05/31 13:22:05;;;;;;;2.20;1.85;;;;;;;;;;4964562;28;20151;-73
2022/05/31 13:24:34;;;;;;;2.83;1.60;;;;;;;;;;4968522;28;20031;-74
2022/05/31 13:27:00;;;;;;;6.20;1.75;;;;;;;;;;4964827;28;20031;-74
2022/05/31 13:29:27;;;;;;;3.00;1.70;;;;;;;;;;4962619;28;20516;-74
2022/05/31 13:31:55;;;;;;;4.13;1.77;;;;;;;;;;4966345;28;20526;-74
2022/05/31 13:34:43;;;;;;;5.43;1.85;;;;;;;;;;4967285;28;20042;-74
2022/05/31 13:37:14;;;;;;;4.38;1.98;;;;;;;;;;4971566;28;20038;-74
2022/05/31 13:39:42;;;;;;;4.50;1.80;;;;;;;;;;4969889;28;20049;-73
2022/05/31 13:42:16;;;;;;;6.50;1.88;;;;;;;;;;4969186;28;20559;-74
2022/05/31 13:44:42;;;;;;;6.80;1.85;;;;;;;;;;4980780;28;20031;-74
2022/05/31 13:47:11;;;;;;;9.02;2.53;;;;;;;;;;4973230;28;20047;-75
2022/05/31 13:49:39;;;;;;;3.35;1.67;;;;;;;;;;4973584;28;20035;-74
2022/05/31 13:52:26;;;;;;;3.60;1.95;;;;;;;;;;4973865;28;20026;-74
2022/05/31 13:55:07;;;;;;;2.75;1.70;;;;;;;;;;4973725;28;20037;-75
2022/05/31 13:57:34;;;;;;;4.22;1.73;;;;;;;;;;4958207;28;20023;-74
2022/05/31 14:00:02;;;;;;;3.50;1.75;;;;;;;;;;4970378;28;20035;-74
2022/05/31 14:02:48;;;;;;;2.72;1.80;;;;;;;;;;4968628;28;20031;-74
2022/05/31 14:05:25;;;;;;;5.65;1.90;;;;;;;;;;4971973;28;20030;-74
2022/05/31 14:07:53;;;;;;;6.95;2.10;;;;;;;;;;4969054;28;20439;-74
2022/05/31 14:10:21;;;;;;;6.47;2.10;;;;;;;;;;4968066;28;20038;-74
2022/05/31 14:12:48;;;;;;;6.18;1.75;;;;;;;;;;4973775;28;20157;-74
2022/05/31 14:15:21;;;;;;;5.30;1.80;;;;;;;;;;4971037;28;20403;-73
2022/05/31 14:17:48;;;;;;;7.32;1.80;;;;;;;;;;4968363;28;20038;-75
2022/05/31 14:20:17;;;;;;;4.28;1.88;;;;;;;;;;4970542;28;20534;-74
2022/05/31 14:22:43;;;;;;;3.97;1.60;;;;;;;;;;4972794;28;20452;-73
2022/05/31 14:25:10;;;;;;;4.80;1.98;;;;;;;;;;4972667;28;20031;-74
2022/05/31 14:27:39;;;;;;;3.72;1.77;;;;;;;;;;4971552;28;20034;-73
2022/05/31 14:30:06;;;;;;;5.18;1.83;;;;;;;;;;4968444;28;20435;-74
2022/05/31 14:32:36;;;;;;;4.63;1.73;;;;;;;;;;4967484;28;20023;-74
2022/05/31 14:35:11;;;;;;;4.55;2.05;;;;;;;;;;4986077;28;20030;-74
2022/05/31 14:37:44;;;;;;;5.65;1.73;;;;;;;;;;4971210;28;20019;-74
2022/05/31 14:40:12;;;;;;;4.28;1.85;;;;;;;;;;4969545;28;20468;-74
2022/05/31 14:42:42;;;;;;;5.13;1.60;;;;;;;;;;4969847;28;20429;-74
2022/05/31 14:45:10;;;;;;;7.47;1.70;;;;;;;;;;4981845;28;20024;-74
2022/05/31 14:47:38;;;;;;;6.32;2.00;;;;;;;;;;4968828;28;20047;-74
2022/05/31 14:50:25;;;;;;;3.05;1.42;;;;;;;;;;4968104;28;20033;-76
2022/05/31 14:52:53;;;;;;;5.78;2.03;;;;;;;;;;4971864;28;20030;-75
2022/05/31 14:55:22;;;;;;;4.63;1.80;;;;;;;;;;4972481;28;20041;-74
2022/05/31 14:58:48;;;;;;;5.47;1.90;;;;;;;;;;4972022;28;20042;-74
2022/05/31 15:01:18;;;;;;;5.38;1.70;;;;;;;;;;4971324;28;20041;-74
2022/05/31 15:04:02;;;;;;;3.50;1.70;;;;;;;;;;4971564;28;20037;-74
2022/05/31 15:06:31;;;;;;;5.28;2.03;;;;;;;;;;4977104;28;20035;-74
2022/05/31 15:09:01;;;;;;;5.35;1.60;;;;;;;;;;4967004;28;20058;-73
2022/05/31 15:19:44;;;;;;;5.10;1.65;;;;;;;;;;4968242;28;20521;-74
2022/05/31 15:22:11;;;;;;;4.10;1.50;;;;;;;;;;4972988;28;20026;-74
2022/05/31 15:24:42;;;;;;;4.40;1.88;;;;;;;;;;4970968;28;20030;-74
2022/05/31 15:27:19;;;;;;;4.30;1.63;;;;;;;;;;4969666;28;20029;-74
2022/05/31 15:29:45;;;;;;;4.70;1.50;;;;;;;;;;4970428;28;20030;-74
2022/05/31 15:32:12;;;;;;;6.25;1.88;;;;;;;;;;4972310;28;20035;-73
2022/05/31 15:34:38;;;;;;;7.30;1.48;;;;;;;;;;4972528;28;20522;-74
2022/05/31 15:37:06;;;;;;;6.03;1.60;;;;;;;;;;4967391;28;20039;-74
2022/05/31 15:39:33;;;;;;;5.00;1.70;;;;;;;;;;4971738;28;20043;-74
2022/05/31 15:42:00;;;;;;;4.53;1.52;;;;;;;;;;4969459;28;20027;-74
2022/05/31 15:44:26;;;;;;;5.90;1.58;;;;;;;;;;4968301;28;20618;-74
2022/05/31 15:46:52;;;;;;;4.63;1.40;;;;;;;;;;4967924;28;20045;-74
2022/05/31 15:49:19;;;;;;;3.72;1.65;;;;;;;;;;4966353;28;20031;-74